Haci Arif Kaptan — TCQQ — position and weather

sailwx.info

Track history (hours):
 
Tides and Currents Weather Stations Pressure Air Temp Water Temp Dewpoint Dewpoint Depression Visibility Wind Speed Wind Dir Waves Ship Positions

Haci Arif Kaptan

Last reported at 2014-Dec-20 19:18 UTC. Time now 2014-Dec-22 12:06 UTC.
Position N 40°46' E 029°31'.

Length 130 m; draft 8.4 m.

Type: Cargo ship. MMSI: 271000494.

Date/timePositionNaut miles runAvg speedWind from/ knotsBaromVisibWave heightAir tempDewpointWater temp
2014-Dec-20 19:18N 40°46' E 029°31'0 0.0
2014-Dec-20 18:30N 40°46' E 029°31'0 0.0
2014-Dec-20 17:31N 40°46' E 029°31'0 0.0
2014-Dec-20 16:30N 40°46' E 029°31'3 3.3
2014-Dec-20 15:32N 40°46' E 029°27'0 0.0
2014-Dec-20 13:27N 40°46' E 029°27'0 0.0
2014-Dec-20 11:15N 40°46' E 029°27'0 0.1
2014-Dec-20 09:27N 40°46' E 029°27'0 0.0
2014-Dec-20 06:03N 40°46' E 029°27'0 0.1
2014-Dec-20 05:09N 40°46' E 029°27'0 0.0
2014-Dec-20 04:27N 40°46' E 029°27'0 0.0
2014-Dec-20 03:33N 40°46' E 029°27'0 0.0
2014-Dec-20 01:09N 40°46' E 029°27'0 0.1
2014-Dec-20 00:09N 40°46' E 029°27'0 0.0
2014-Dec-19 23:33N 40°46' E 029°27'3 3.2
2014-Dec-19 22:33N 40°44' E 029°24'8 8.0
2014-Dec-19 21:33N 40°46' E 029°14'9 8.6
2014-Dec-19 20:30N 40°50' E 029°03'8 7.2
2014-Dec-19 19:22N 40°56' E 028°56'4 4.6
2014-Dec-19 18:33N 40°59' E 028°59'11 8.0
2014-Dec-19 17:14N 41°09' E 029°03'7 8.7
2014-Dec-19 16:26N 41°15' E 029°08'6 7.4
2014-Dec-19 15:33N 41°21' E 029°10'9 8.5
2014-Dec-19 14:31N 41°28' E 029°18'5 0.8
2014-Dec-19 08:27N 41°27' E 029°24'7 8.3
2014-Dec-19 07:33N 41°28' E 029°34'265 8.2
2014-Dec-17 23:11N 42°58' E 035°11'6 8.7
2014-Dec-17 22:32N 42°60' E 035°19'8 8.8
2014-Dec-17 21:33N 43°03' E 035°30'9 8.8
2014-Dec-17 20:33N 43°06' E 035°41'9 8.9
2014-Dec-17 19:33N 43°09' E 035°53'11 9.0
2014-Dec-17 18:17N 43°13' E 036°07'96 8.6
2014-Dec-17 07:11N 43°45' E 038°11'23 8.7
2014-Dec-17 04:33N 43°53' E 038°41'9 8.9
2014-Dec-17 03:33N 43°56' E 038°53'9 8.6
2014-Dec-17 02:33N 44°01' E 039°03'5 4.8
2014-Dec-17 01:30N 44°06' E 039°04'0 0.0
2014-Dec-17 00:33N 44°06' E 039°04'0 0.0
2014-Dec-16 23:33N 44°06' E 039°04'0 0.0
2014-Dec-16 22:33N 44°06' E 039°04'0 0.0
2014-Dec-16 21:30N 44°06' E 039°04'0 0.0
2014-Dec-16 20:30N 44°06' E 039°04'0 0.0
2014-Dec-16 19:33N 44°06' E 039°04'0 0.0
2014-Dec-16 18:33N 44°06' E 039°04'0 0.0
2014-Dec-16 17:30N 44°06' E 039°04'0 0.0
2014-Dec-16 16:33N 44°06' E 039°04'0 0.0
2014-Dec-16 15:33N 44°06' E 039°04'0 0.0
2014-Dec-16 14:33N 44°06' E 039°04'0 0.0
2014-Dec-16 13:33N 44°06' E 039°04'0 0.0
2014-Dec-16 12:33N 44°06' E 039°04'0 0.0
2014-Dec-16 11:30N 44°06' E 039°04'0 0.0
2014-Dec-16 10:33N 44°06' E 039°04'0 0.0
2014-Dec-16 09:33N 44°06' E 039°04'0 0.0
2014-Dec-16 08:33N 44°06' E 039°04'0 0.0
2014-Dec-16 07:33N 44°06' E 039°04'0 0.0
2014-Dec-16 06:33N 44°06' E 039°04'0 0.0
2014-Dec-16 05:33N 44°06' E 039°04'0 0.0
2014-Dec-16 04:27N 44°06' E 039°04'0 0.0
2014-Dec-16 03:30N 44°06' E 039°04'0 0.0
2014-Dec-16 02:33N 44°06' E 039°04'0 0.0
2014-Dec-16 01:17N 44°06' E 039°04'0 0.0
2014-Dec-15 23:33N 44°06' E 039°04'0 0.0
2014-Dec-15 22:33N 44°06' E 039°04'0 0.0
2014-Dec-15 21:33N 44°06' E 039°04'0 0.0
2014-Dec-15 20:33N 44°06' E 039°04'0 0.0
2014-Dec-15 19:33N 44°06' E 039°04'0 0.0
2014-Dec-15 18:33N 44°06' E 039°04'0 0.0
2014-Dec-15 17:33N 44°06' E 039°04'0 0.0
2014-Dec-15 16:33N 44°06' E 039°04'0 0.0
2014-Dec-15 15:33N 44°06' E 039°04'0 0.0
2014-Dec-15 14:33N 44°06' E 039°04'0 0.0
2014-Dec-15 13:33N 44°06' E 039°04'0 0.0
2014-Dec-15 12:30N 44°06' E 039°04'0 0.0
2014-Dec-15 11:33N 44°06' E 039°04'0 0.0
2014-Dec-15 10:33N 44°06' E 039°04'0 0.0
2014-Dec-15 09:33N 44°06' E 039°04'0 0.0
2014-Dec-15 08:33N 44°06' E 039°04'0 0.0
2014-Dec-15 07:33N 44°06' E 039°04'0 0.0
2014-Dec-15 06:33N 44°06' E 039°04'0 0.0
2014-Dec-15 05:33N 44°06' E 039°04'0 0.0
2014-Dec-15 04:33N 44°06' E 039°04'0 0.0
2014-Dec-15 03:33N 44°06' E 039°04'0 0.0
2014-Dec-15 02:33N 44°06' E 039°04'0 0.0
2014-Dec-15 01:33N 44°06' E 039°04'0 0.0
2014-Dec-15 00:33N 44°06' E 039°04'0 0.0
2014-Dec-14 23:33N 44°06' E 039°04'0 0.0
2014-Dec-14 22:33N 44°06' E 039°04'0 0.0
2014-Dec-14 21:33N 44°06' E 039°04'0 0.0
2014-Dec-14 20:33N 44°06' E 039°04'0 0.0
2014-Dec-14 19:33N 44°06' E 039°04'0 0.0
2014-Dec-14 18:33N 44°06' E 039°04'0 0.0
2014-Dec-14 17:33N 44°06' E 039°04'0 0.0
2014-Dec-14 16:33N 44°06' E 039°04'0 0.0
2014-Dec-14 15:33N 44°06' E 039°04'0 0.0
2014-Dec-14 14:30N 44°06' E 039°04'0 0.0
2014-Dec-14 13:33N 44°06' E 039°04'0 0.0
2014-Dec-14 12:33N 44°06' E 039°04'0 0.0
2014-Dec-14 11:33N 44°06' E 039°04'0 0.0
2014-Dec-14 10:33N 44°06' E 039°04'0 0.0
2014-Dec-14 09:33N 44°06' E 039°04'0 0.0
2014-Dec-14 08:33N 44°06' E 039°04'0 0.0
2014-Dec-14 07:33N 44°06' E 039°04'0 0.0
2014-Dec-14 06:33N 44°06' E 039°04'0 0.4
2014-Dec-14 05:33N 44°05' E 039°04'2 2.2
2014-Dec-14 04:32N 44°03' E 039°05'0 0.0
2014-Dec-14 03:32N 44°03' E 039°05'0 0.0
2014-Dec-14 02:32N 44°03' E 039°05'0 0.0
2014-Dec-14 01:32N 44°03' E 039°05'0 0.0
2014-Dec-14 00:32N 44°03' E 039°05'0 0.0
2014-Dec-13 23:32N 44°03' E 039°05'0 0.0
2014-Dec-13 22:32N 44°03' E 039°05'0 0.0
2014-Dec-13 21:32N 44°03' E 039°05'0 0.0
2014-Dec-13 20:32N 44°03' E 039°05'0 0.0
2014-Dec-13 19:32N 44°03' E 039°05'0 0.1
2014-Dec-13 18:32N 44°03' E 039°05'0 0.0
2014-Dec-13 17:32N 44°03' E 039°05'0 0.0
2014-Dec-13 16:32N 44°03' E 039°05'0 0.0
2014-Dec-13 15:32N 44°03' E 039°05'0 0.0
2014-Dec-13 14:32N 44°03' E 039°05'0 0.0
2014-Dec-13 13:32N 44°03' E 039°05'0 0.0
2014-Dec-13 12:32N 44°03' E 039°05'0 0.0
2014-Dec-13 11:32N 44°03' E 039°05'0 0.0
2014-Dec-13 10:32N 44°03' E 039°05'0 0.0
2014-Dec-13 09:32N 44°03' E 039°05'0 0.0
2014-Dec-13 08:32N 44°03' E 039°05'0 0.1
2014-Dec-13 07:34N 44°03' E 039°05'1 1.3
2014-Dec-13 06:33N 44°02' E 039°03'8 8.0
2014-Dec-13 05:33N 43°56' E 038°56'10 9.6
2014-Dec-13 04:33N 43°52' E 038°44'21010.4
2014-Dec-12 08:23N 42°09' E 034°34'22911.0
2014-Dec-11 11:34N 41°17' E 029°35'1110.8
2014-Dec-11 10:33N 41°17' E 029°20'  
Track history (hours):
 
Tides and Currents Weather Stations Pressure Air Temp Water Temp Dewpoint Dewpoint Depression Visibility Wind Speed Wind Dir Waves Ship Positions

Haci Arif Kaptan

Last reported at 2014-Dec-20 19:18 UTC. Time now 2014-Dec-22 12:06 UTC.
Position N 40°46' E 029°31'.

Length 130 m; draft 8.4 m.

Type: Cargo ship. MMSI: 271000494.

Date/timePositionNaut miles runAvg speedWind from/ knotsBaromVisibWave heightAir tempDewpointWater temp
2014-Dec-20 19:18N 40°46' E 029°31'0 0.0
2014-Dec-20 18:30N 40°46' E 029°31'0 0.0
2014-Dec-20 17:31N 40°46' E 029°31'0 0.0
2014-Dec-20 16:30N 40°46' E 029°31'3 3.3
2014-Dec-20 15:32N 40°46' E 029°27'0 0.0
2014-Dec-20 13:27N 40°46' E 029°27'0 0.0
2014-Dec-20 11:15N 40°46' E 029°27'0 0.1
2014-Dec-20 09:27N 40°46' E 029°27'0 0.0
2014-Dec-20 06:03N 40°46' E 029°27'0 0.1
2014-Dec-20 05:09N 40°46' E 029°27'0 0.0
2014-Dec-20 04:27N 40°46' E 029°27'0 0.0
2014-Dec-20 03:33N 40°46' E 029°27'0 0.0
2014-Dec-20 01:09N 40°46' E 029°27'0 0.1
2014-Dec-20 00:09N 40°46' E 029°27'0 0.0
2014-Dec-19 23:33N 40°46' E 029°27'3 3.2
2014-Dec-19 22:33N 40°44' E 029°24'8 8.0
2014-Dec-19 21:33N 40°46' E 029°14'9 8.6
2014-Dec-19 20:30N 40°50' E 029°03'8 7.2
2014-Dec-19 19:22N 40°56' E 028°56'4 4.6
2014-Dec-19 18:33N 40°59' E 028°59'11 8.0
2014-Dec-19 17:14N 41°09' E 029°03'7 8.7
2014-Dec-19 16:26N 41°15' E 029°08'6 7.4
2014-Dec-19 15:33N 41°21' E 029°10'9 8.5
2014-Dec-19 14:31N 41°28' E 029°18'5 0.8
2014-Dec-19 08:27N 41°27' E 029°24'7 8.3
2014-Dec-19 07:33N 41°28' E 029°34'265 8.2
2014-Dec-17 23:11N 42°58' E 035°11'6 8.7
2014-Dec-17 22:32N 42°60' E 035°19'8 8.8
2014-Dec-17 21:33N 43°03' E 035°30'9 8.8
2014-Dec-17 20:33N 43°06' E 035°41'9 8.9
2014-Dec-17 19:33N 43°09' E 035°53'11 9.0
2014-Dec-17 18:17N 43°13' E 036°07'96 8.6
2014-Dec-17 07:11N 43°45' E 038°11'23 8.7
2014-Dec-17 04:33N 43°53' E 038°41'9 8.9
2014-Dec-17 03:33N 43°56' E 038°53'9 8.6
2014-Dec-17 02:33N 44°01' E 039°03'5 4.8
2014-Dec-17 01:30N 44°06' E 039°04'0 0.0
2014-Dec-17 00:33N 44°06' E 039°04'0 0.0
2014-Dec-16 23:33N 44°06' E 039°04'0 0.0
2014-Dec-16 22:33N 44°06' E 039°04'0 0.0
2014-Dec-16 21:30N 44°06' E 039°04'0 0.0
2014-Dec-16 20:30N 44°06' E 039°04'0 0.0
2014-Dec-16 19:33N 44°06' E 039°04'0 0.0
2014-Dec-16 18:33N 44°06' E 039°04'0 0.0
2014-Dec-16 17:30N 44°06' E 039°04'0 0.0
2014-Dec-16 16:33N 44°06' E 039°04'0 0.0
2014-Dec-16 15:33N 44°06' E 039°04'0 0.0
2014-Dec-16 14:33N 44°06' E 039°04'0 0.0
2014-Dec-16 13:33N 44°06' E 039°04'0 0.0
2014-Dec-16 12:33N 44°06' E 039°04'0 0.0
2014-Dec-16 11:30N 44°06' E 039°04'0 0.0
2014-Dec-16 10:33N 44°06' E 039°04'0 0.0
2014-Dec-16 09:33N 44°06' E 039°04'0 0.0
2014-Dec-16 08:33N 44°06' E 039°04'0 0.0
2014-Dec-16 07:33N 44°06' E 039°04'0 0.0
2014-Dec-16 06:33N 44°06' E 039°04'0 0.0
2014-Dec-16 05:33N 44°06' E 039°04'0 0.0
2014-Dec-16 04:27N 44°06' E 039°04'0 0.0
2014-Dec-16 03:30N 44°06' E 039°04'0 0.0
2014-Dec-16 02:33N 44°06' E 039°04'0 0.0
2014-Dec-16 01:17N 44°06' E 039°04'0 0.0
2014-Dec-15 23:33N 44°06' E 039°04'0 0.0
2014-Dec-15 22:33N 44°06' E 039°04'0 0.0
2014-Dec-15 21:33N 44°06' E 039°04'0 0.0
2014-Dec-15 20:33N 44°06' E 039°04'0 0.0
2014-Dec-15 19:33N 44°06' E 039°04'0 0.0
2014-Dec-15 18:33N 44°06' E 039°04'0 0.0
2014-Dec-15 17:33N 44°06' E 039°04'0 0.0
2014-Dec-15 16:33N 44°06' E 039°04'0 0.0
2014-Dec-15 15:33N 44°06' E 039°04'0 0.0
2014-Dec-15 14:33N 44°06' E 039°04'0 0.0
2014-Dec-15 13:33N 44°06' E 039°04'0 0.0
2014-Dec-15 12:30N 44°06' E 039°04'0 0.0
2014-Dec-15 11:33N 44°06' E 039°04'0 0.0
2014-Dec-15 10:33N 44°06' E 039°04'0 0.0
2014-Dec-15 09:33N 44°06' E 039°04'0 0.0
2014-Dec-15 08:33N 44°06' E 039°04'0 0.0
2014-Dec-15 07:33N 44°06' E 039°04'0 0.0
2014-Dec-15 06:33N 44°06' E 039°04'0 0.0
2014-Dec-15 05:33N 44°06' E 039°04'0 0.0
2014-Dec-15 04:33N 44°06' E 039°04'0 0.0
2014-Dec-15 03:33N 44°06' E 039°04'0 0.0
2014-Dec-15 02:33N 44°06' E 039°04'0 0.0
2014-Dec-15 01:33N 44°06' E 039°04'0 0.0
2014-Dec-15 00:33N 44°06' E 039°04'0 0.0
2014-Dec-14 23:33N 44°06' E 039°04'0 0.0
2014-Dec-14 22:33N 44°06' E 039°04'0 0.0
2014-Dec-14 21:33N 44°06' E 039°04'0 0.0
2014-Dec-14 20:33N 44°06' E 039°04'0 0.0
2014-Dec-14 19:33N 44°06' E 039°04'0 0.0
2014-Dec-14 18:33N 44°06' E 039°04'0 0.0
2014-Dec-14 17:33N 44°06' E 039°04'0 0.0
2014-Dec-14 16:33N 44°06' E 039°04'0 0.0
2014-Dec-14 15:33N 44°06' E 039°04'0 0.0
2014-Dec-14 14:30N 44°06' E 039°04'0 0.0
2014-Dec-14 13:33N 44°06' E 039°04'0 0.0
2014-Dec-14 12:33N 44°06' E 039°04'0 0.0
2014-Dec-14 11:33N 44°06' E 039°04'0 0.0
2014-Dec-14 10:33N 44°06' E 039°04'0 0.0
2014-Dec-14 09:33N 44°06' E 039°04'0 0.0
2014-Dec-14 08:33N 44°06' E 039°04'0 0.0
2014-Dec-14 07:33N 44°06' E 039°04'0 0.0
2014-Dec-14 06:33N 44°06' E 039°04'0 0.4
2014-Dec-14 05:33N 44°05' E 039°04'2 2.2
2014-Dec-14 04:32N 44°03' E 039°05'0 0.0
2014-Dec-14 03:32N 44°03' E 039°05'0 0.0
2014-Dec-14 02:32N 44°03' E 039°05'0 0.0
2014-Dec-14 01:32N 44°03' E 039°05'0 0.0
2014-Dec-14 00:32N 44°03' E 039°05'0 0.0
2014-Dec-13 23:32N 44°03' E 039°05'0 0.0
2014-Dec-13 22:32N 44°03' E 039°05'0 0.0
2014-Dec-13 21:32N 44°03' E 039°05'0 0.0
2014-Dec-13 20:32N 44°03' E 039°05'0 0.0
2014-Dec-13 19:32N 44°03' E 039°05'0 0.1
2014-Dec-13 18:32N 44°03' E 039°05'0 0.0
2014-Dec-13 17:32N 44°03' E 039°05'0 0.0
2014-Dec-13 16:32N 44°03' E 039°05'0 0.0
2014-Dec-13 15:32N 44°03' E 039°05'0 0.0
2014-Dec-13 14:32N 44°03' E 039°05'0 0.0
2014-Dec-13 13:32N 44°03' E 039°05'0 0.0
2014-Dec-13 12:32N 44°03' E 039°05'0 0.0
2014-Dec-13 11:32N 44°03' E 039°05'0 0.0
2014-Dec-13 10:32N 44°03' E 039°05'0 0.0
2014-Dec-13 09:32N 44°03' E 039°05'0 0.0
2014-Dec-13 08:32N 44°03' E 039°05'0 0.1
2014-Dec-13 07:34N 44°03' E 039°05'1 1.3
2014-Dec-13 06:33N 44°02' E 039°03'8 8.0
2014-Dec-13 05:33N 43°56' E 038°56'10 9.6
2014-Dec-13 04:33N 43°52' E 038°44'21010.4
2014-Dec-12 08:23N 42°09' E 034°34'22911.0
2014-Dec-11 11:34N 41°17' E 029°35'1110.8
2014-Dec-11 10:33N 41°17' E 029°20'  

Dump ship's entire track history